Viscount, Canada
Current Conditions -  °F | °C
As of 8:00 AM on Wednesday 28 Jan 2015 (Local Time) from CYXE Reporting Station
Light Snow Light Snow  
Wind Chill:   Ceiling: 2400
Heat Index: 18°   Visibility: 14mi
Dew Point: 16°   Wind: 7mph
Humidity: 93%   Direction: 30°NNE
Pressure: 30.03"   Gusts: NA
Location:  51.95°N, 105.63°W
Report Text: CYXE 281400Z 03006KT 14SM -SN BKN024 OVC060 M08/M09 A3003 RMK SC5SC3 PRESRR SLP202
Loading
Personal Weather Stations






























Interactive Weather Map New forecast layout! Learn more

10-Day Weather Forecast

Advertisements
Track Severe Weather on mobile